Salvaterra, Brazil
Current Conditions -  °F | °C
As of 3:00 PM on Tuesday 21 Oct 2014 (Local Time) from SBBE Reporting Station
Broken Clouds Broken Clouds  
Wind Chill: 86°   Ceiling: 3000
Heat Index: 95°   Visibility: 6mi
Dew Point: 75°   Wind: 8mph
Humidity: 70%   Direction: 10°N
Pressure: 29.8"   Gusts: NA
Location:  0.75°S, 48.52°W
Report Text: SBBE 211800Z 01007KT 9999 BKN030 FEW035TCU 30/24 Q1009
Loading
Personal Weather Stations






























Interactive Weather Map
Tropical Storm Tracking
New forecast layout! Learn more

10-Day Weather Forecast

Advertisements
Track Severe Weather on mobile